هوانوردی

Instrument Flying Handbook

پی دی اف ارزشمند Instrument Flying Handbook را حتما مطالعه کنید برای دوستانی که شروع کردند به پرواز با هواپیماهای دیفالت بسیار مناسب است   تصاویری از این پی دی...

چند کلامی درباره ی ACARS

ACARS مخفف Aircraft Communication Addressing and Reporting System میباشد که اطلاعات مربوطه را بصورت Data Communication به ایستگاه زمینی ارسال میکند اطلاعاتی که توسط این سیستم بصورت اتوماتیک ارسال میشوند...

۱

جزوه ایرودینامیک پرواز

ابتدا اجزای اصلی تشكیل دهنده یك هواپیما را بررسی میكنیم : 1)Fuselage : به بدنه اصلی هواپیما میگوییم كه تمام قسمتهای دیگر به آن متصل میشوند و فضایی است كه...

آموزش خواندن متار:

گزارشات هواشناسی شاملMETAR: هوای حاضر فرودگاهTAFO: پیش بینی برای شهر هاAREA FOR CAST : پیش بینی منطقه ایییک نمونه از METAR که مربوط به فرودگاه مهرآباد استOIII 122255Z 00000KT 2000 -SN BR FEW030CB FEW035 OVC09 M06/M06 Q1022 A3018 886.2خوب خواندن این گزارش به صورت زیر است

کامل ترین آموزش فارسی A320

آموزش فارسی هواپیمای A320 Cold and Dark توسط استاد تایماز سپاهی مدت زمان ویدیو : 1 ساعت و 45 دقیقه       جهت دانلود هواپیما به لینک زیر بروید...

7

آموزش سیستم برق MD 80

[smartslider3 slider=2] چهارمین محصول اف اس سنتر که منتشر شد از جمله تایپ هایی که مورد علاقه ی کاربران شبیه ساز هست میتوان از این محصول نام برد حال به...

آموزش ناوبری VOR پارت دوم

پارت دوم آموزش ناوبری VOR منتشر شد   VOR:very high frequency omnidirectional range از سال 1949 VOR به عنوان یک سیستم استاندارد جهانی و دستگاه ناوبری و در مواردی برای...

2